sensor_id;sensor_type;location;lat;lon;timestamp;P1;durP1;ratioP1;P2;durP2;ratioP2
79401;SDS011;68857;47.916;106.940;2023-12-20T00:01:27;16.88;;;6.05;;
79401;SDS011;68857;47.916;106.940;2023-12-20T00:03:54;17.55;;;6.22;;
79401;SDS011;68857;47.916;106.940;2023-12-20T00:06:21;20.27;;;6.70;;
79401;SDS011;68857;47.916;106.940;2023-12-20T00:08:48;16.10;;;5.68;;
79401;SDS011;68857;47.916;106.940;2023-12-20T00:11:14;18.20;;;6.38;;
79401;SDS011;68857;47.916;106.940;2023-12-20T00:13:41;16.40;;;6.50;;
79401;SDS011;68857;47.916;106.940;2023-12-20T00:16:09;20.67;;;7.72;;
79401;SDS011;68857;47.916;106.940;2023-12-20T00:18:35;22.27;;;8.63;;
79401;SDS011;68857;47.916;106.940;2023-12-20T00:21:02;20.90;;;7.60;;
79401;SDS011;68857;47.916;106.940;2023-12-20T00:23:29;18.73;;;7.88;;
79401;SDS011;68857;47.916;106.940;2023-12-20T00:25:57;19.88;;;7.53;;
79401;SDS011;68857;47.916;106.940;2023-12-20T00:28:23;26.90;;;8.82;;
79401;SDS011;68857;47.916;106.940;2023-12-20T00:30:50;28.17;;;9.52;;
79401;SDS011;68857;47.916;106.940;2023-12-20T00:33:17;40.45;;;13.10;;
79401;SDS011;68857;47.916;106.940;2023-12-20T00:35:44;36.72;;;12.60;;
79401;SDS011;68857;47.916;106.940;2023-12-20T00:38:11;32.78;;;12.55;;
79401;SDS011;68857;47.916;106.940;2023-12-20T00:40:38;35.28;;;11.48;;
79401;SDS011;68857;47.916;106.940;2023-12-20T00:43:04;30.48;;;11.18;;
79401;SDS011;68857;47.916;106.940;2023-12-20T00:45:31;33.95;;;11.90;;
79401;SDS011;68857;47.916;106.940;2023-12-20T00:47:58;37.78;;;12.68;;
79401;SDS011;68857;47.916;106.940;2023-12-20T00:50:25;28.40;;;11.82;;
79401;SDS011;68857;47.916;106.940;2023-12-20T00:52:52;30.20;;;10.13;;
79401;SDS011;68857;47.916;106.940;2023-12-20T00:55:20;28.55;;;12.93;;
79401;SDS011;68857;47.916;106.940;2023-12-20T00:57:46;34.10;;;10.43;;
79401;SDS011;68857;47.916;106.940;2023-12-20T01:00:13;26.55;;;9.32;;
79401;SDS011;68857;47.916;106.940;2023-12-20T01:02:40;27.13;;;10.57;;
79401;SDS011;68857;47.916;106.940;2023-12-20T01:05:07;35.65;;;10.77;;
79401;SDS011;68857;47.916;106.940;2023-12-20T01:10:01;23.95;;;8.82;;
79401;SDS011;68857;47.916;106.940;2023-12-20T01:12:30;27.15;;;10.15;;
79401;SDS011;68857;47.916;106.940;2023-12-20T01:14:56;26.60;;;9.75;;
79401;SDS011;68857;47.916;106.940;2023-12-20T01:17:24;24.67;;;11.20;;
79401;SDS011;68857;47.916;106.940;2023-12-20T01:19:50;24.15;;;7.85;;
79401;SDS011;68857;47.916;106.940;2023-12-20T01:22:17;31.33;;;10.50;;
79401;SDS011;68857;47.916;106.940;2023-12-20T01:24:44;31.40;;;12.50;;
79401;SDS011;68857;47.916;106.940;2023-12-20T01:27:11;27.88;;;10.38;;
79401;SDS011;68857;47.916;106.940;2023-12-20T01:29:38;28.52;;;11.00;;
79401;SDS011;68857;47.916;106.940;2023-12-20T01:32:04;27.02;;;10.10;;
79401;SDS011;68857;47.916;106.940;2023-12-20T01:34:31;29.48;;;11.70;;
79401;SDS011;68857;47.916;106.940;2023-12-20T01:36:58;28.75;;;10.93;;
79401;SDS011;68857;47.916;106.940;2023-12-20T01:39:25;27.60;;;11.77;;
79401;SDS011;68857;47.916;106.940;2023-12-20T01:41:52;32.35;;;11.23;;
79401;SDS011;68857;47.916;106.940;2023-12-20T01:44:21;36.42;;;11.63;;
79401;SDS011;68857;47.916;106.940;2023-12-20T01:46:47;27.83;;;12.32;;
79401;SDS011;68857;47.916;106.940;2023-12-20T01:49:14;31.70;;;11.77;;
79401;SDS011;68857;47.916;106.940;2023-12-20T01:51:41;35.42;;;13.73;;
79401;SDS011;68857;47.916;106.940;2023-12-20T01:56:35;38.92;;;13.57;;
79401;SDS011;68857;47.916;106.940;2023-12-20T01:59:02;28.20;;;13.07;;
79401;SDS011;68857;47.916;106.940;2023-12-20T02:01:29;36.70;;;13.07;;
79401;SDS011;68857;47.916;106.940;2023-12-20T02:03:57;40.63;;;13.20;;
79401;SDS011;68857;47.916;106.940;2023-12-20T02:06:24;36.42;;;13.75;;
79401;SDS011;68857;47.916;106.940;2023-12-20T02:11:17;28.23;;;10.70;;
79401;SDS011;68857;47.916;106.940;2023-12-20T02:13:44;34.38;;;13.10;;
79401;SDS011;68857;47.916;106.940;2023-12-20T02:16:11;30.63;;;10.63;;
79401;SDS011;68857;47.916;106.940;2023-12-20T02:18:38;30.65;;;12.52;;
79401;SDS011;68857;47.916;106.940;2023-12-20T02:21:05;31.60;;;11.65;;
79401;SDS011;68857;47.916;106.940;2023-12-20T02:23:32;36.05;;;12.68;;
79401;SDS011;68857;47.916;106.940;2023-12-20T02:25:59;34.40;;;12.38;;
79401;SDS011;68857;47.916;106.940;2023-12-20T02:28:26;26.65;;;11.93;;
79401;SDS011;68857;47.916;106.940;2023-12-20T02:30:53;36.58;;;12.63;;
79401;SDS011;68857;47.916;106.940;2023-12-20T02:33:19;27.60;;;11.52;;
79401;SDS011;68857;47.916;106.940;2023-12-20T02:35:46;33.28;;;9.82;;
79401;SDS011;68857;47.916;106.940;2023-12-20T02:38:13;29.63;;;11.80;;
79401;SDS011;68857;47.916;106.940;2023-12-20T02:40:40;25.65;;;11.35;;
79401;SDS011;68857;47.916;106.940;2023-12-20T02:43:06;35.90;;;11.65;;
79401;SDS011;68857;47.916;106.940;2023-12-20T02:45:33;25.98;;;9.98;;
79401;SDS011;68857;47.916;106.940;2023-12-20T02:48:00;31.33;;;10.32;;
79401;SDS011;68857;47.916;106.940;2023-12-20T02:50:26;30.80;;;10.25;;
79401;SDS011;68857;47.916;106.940;2023-12-20T02:52:53;26.83;;;9.88;;
79401;SDS011;68857;47.916;106.940;2023-12-20T02:55:20;27.25;;;9.20;;
79401;SDS011;68857;47.916;106.940;2023-12-20T02:57:47;26.98;;;10.27;;
79401;SDS011;68857;47.916;106.940;2023-12-20T03:00:13;27.70;;;11.73;;
79401;SDS011;68857;47.916;106.940;2023-12-20T03:02:40;31.75;;;9.93;;
79401;SDS011;68857;47.916;106.940;2023-12-20T03:05:09;35.60;;;10.80;;
79401;SDS011;68857;47.916;106.940;2023-12-20T03:07:36;23.83;;;8.63;;
79401;SDS011;68857;47.916;106.940;2023-12-20T03:10:03;24.20;;;9.55;;
79401;SDS011;68857;47.916;106.940;2023-12-20T03:12:31;31.20;;;10.40;;
79401;SDS011;68857;47.916;106.940;2023-12-20T03:14:58;23.25;;;10.35;;
79401;SDS011;68857;47.916;106.940;2023-12-20T03:17:25;33.90;;;10.00;;
79401;SDS011;68857;47.916;106.940;2023-12-20T03:19:51;26.10;;;10.23;;
79401;SDS011;68857;47.916;106.940;2023-12-20T03:22:18;31.92;;;9.60;;
79401;SDS011;68857;47.916;106.940;2023-12-20T03:24:45;30.88;;;10.13;;
79401;SDS011;68857;47.916;106.940;2023-12-20T03:27:12;26.90;;;10.25;;
79401;SDS011;68857;47.916;106.940;2023-12-20T03:29:38;31.23;;;10.52;;
79401;SDS011;68857;47.916;106.940;2023-12-20T03:32:05;25.55;;;11.00;;
79401;SDS011;68857;47.916;106.940;2023-12-20T03:34:34;22.73;;;8.35;;
79401;SDS011;68857;47.916;106.940;2023-12-20T03:37:00;28.13;;;9.35;;
79401;SDS011;68857;47.916;106.940;2023-12-20T03:39:27;31.33;;;11.05;;
79401;SDS011;68857;47.916;106.940;2023-12-20T03:41:54;23.88;;;9.60;;
79401;SDS011;68857;47.916;106.940;2023-12-20T03:44:20;29.95;;;10.45;;
79401;SDS011;68857;47.916;106.940;2023-12-20T03:46:47;27.70;;;9.95;;
79401;SDS011;68857;47.916;106.940;2023-12-20T03:49:14;27.80;;;9.32;;
79401;SDS011;68857;47.916;106.940;2023-12-20T03:51:41;25.88;;;10.75;;
79401;SDS011;68857;47.916;106.940;2023-12-20T03:54:08;25.95;;;9.98;;
79401;SDS011;68857;47.916;106.940;2023-12-20T03:56:35;29.15;;;10.60;;
79401;SDS011;68857;47.916;106.940;2023-12-20T03:59:01;26.75;;;10.48;;
79401;SDS011;68857;47.916;106.940;2023-12-20T04:01:29;24.17;;;10.73;;
79401;SDS011;68857;47.916;106.940;2023-12-20T04:03:55;32.60;;;11.93;;
79401;SDS011;68857;47.916;106.940;2023-12-20T04:06:22;29.38;;;9.00;;
79401;SDS011;68857;47.916;106.940;2023-12-20T04:08:49;21.83;;;9.77;;
79401;SDS011;68857;47.916;106.940;2023-12-20T04:11:16;31.15;;;10.55;;
79401;SDS011;68857;47.916;106.940;2023-12-20T04:13:42;31.48;;;12.02;;
79401;SDS011;68857;47.916;106.940;2023-12-20T04:16:09;30.20;;;11.50;;
79401;SDS011;68857;47.916;106.940;2023-12-20T04:18:36;25.52;;;11.40;;
79401;SDS011;68857;47.916;106.940;2023-12-20T04:21:03;25.98;;;10.57;;
79401;SDS011;68857;47.916;106.940;2023-12-20T04:23:29;28.33;;;9.68;;
79401;SDS011;68857;47.916;106.940;2023-12-20T04:25:56;24.70;;;10.38;;
79401;SDS011;68857;47.916;106.940;2023-12-20T04:28:23;28.67;;;9.18;;
79401;SDS011;68857;47.916;106.940;2023-12-20T04:30:50;23.98;;;8.50;;
79401;SDS011;68857;47.916;106.940;2023-12-20T04:33:17;30.13;;;11.45;;
79401;SDS011;68857;47.916;106.940;2023-12-20T04:35:44;27.95;;;8.65;;
79401;SDS011;68857;47.916;106.940;2023-12-20T04:40:37;29.38;;;7.05;;
79401;SDS011;68857;47.916;106.940;2023-12-20T04:43:06;21.65;;;7.38;;
79401;SDS011;68857;47.916;106.940;2023-12-20T04:45:34;23.67;;;9.63;;
79401;SDS011;68857;47.916;106.940;2023-12-20T04:48:01;24.52;;;8.82;;
79401;SDS011;68857;47.916;106.940;2023-12-20T04:52:54;22.25;;;8.07;;
79401;SDS011;68857;47.916;106.940;2023-12-20T04:55:21;24.00;;;8.32;;
79401;SDS011;68857;47.916;106.940;2023-12-20T04:57:48;22.77;;;7.38;;
79401;SDS011;68857;47.916;106.940;2023-12-20T05:00:15;24.63;;;7.78;;
79401;SDS011;68857;47.916;106.940;2023-12-20T05:02:41;20.58;;;8.52;;
79401;SDS011;68857;47.916;106.940;2023-12-20T05:05:08;21.95;;;7.20;;
79401;SDS011;68857;47.916;106.940;2023-12-20T05:07:35;22.60;;;7.65;;
79401;SDS011;68857;47.916;106.940;2023-12-20T05:10:02;25.70;;;8.18;;
79401;SDS011;68857;47.916;106.940;2023-12-20T05:12:33;23.63;;;7.78;;
79401;SDS011;68857;47.916;106.940;2023-12-20T05:15:00;18.92;;;6.15;;
79401;SDS011;68857;47.916;106.940;2023-12-20T05:17:27;18.10;;;6.45;;
79401;SDS011;68857;47.916;106.940;2023-12-20T05:19:54;26.05;;;6.75;;
79401;SDS011;68857;47.916;106.940;2023-12-20T05:22:20;15.98;;;5.82;;
79401;SDS011;68857;47.916;106.940;2023-12-20T05:24:47;20.73;;;7.97;;
79401;SDS011;68857;47.916;106.940;2023-12-20T05:27:14;16.30;;;6.13;;
79401;SDS011;68857;47.916;106.940;2023-12-20T05:29:41;21.63;;;7.82;;
79401;SDS011;68857;47.916;106.940;2023-12-20T05:32:08;19.60;;;8.05;;
79401;SDS011;68857;47.916;106.940;2023-12-20T05:34:34;16.33;;;6.28;;
79401;SDS011;68857;47.916;106.940;2023-12-20T05:39:28;14.65;;;6.35;;
79401;SDS011;68857;47.916;106.940;2023-12-20T05:41:56;15.10;;;5.45;;
79401;SDS011;68857;47.916;106.940;2023-12-20T05:44:23;14.23;;;4.63;;
79401;SDS011;68857;47.916;106.940;2023-12-20T05:46:50;20.20;;;6.50;;
79401;SDS011;68857;47.916;106.940;2023-12-20T05:49:16;12.73;;;5.80;;
79401;SDS011;68857;47.916;106.940;2023-12-20T05:51:43;13.88;;;4.75;;
79401;SDS011;68857;47.916;106.940;2023-12-20T05:54:10;12.57;;;5.15;;
79401;SDS011;68857;47.916;106.940;2023-12-20T05:56:37;18.05;;;5.80;;
79401;SDS011;68857;47.916;106.940;2023-12-20T05:59:03;16.55;;;5.63;;
79401;SDS011;68857;47.916;106.940;2023-12-20T06:01:30;18.60;;;7.53;;
79401;SDS011;68857;47.916;106.940;2023-12-20T06:03:57;16.83;;;4.97;;
79401;SDS011;68857;47.916;106.940;2023-12-20T06:06:24;15.30;;;5.55;;
79401;SDS011;68857;47.916;106.940;2023-12-20T06:08:50;13.35;;;4.05;;
79401;SDS011;68857;47.916;106.940;2023-12-20T06:11:17;13.73;;;4.90;;
79401;SDS011;68857;47.916;106.940;2023-12-20T06:13:44;14.18;;;4.65;;
79401;SDS011;68857;47.916;106.940;2023-12-20T06:16:11;14.40;;;5.22;;
79401;SDS011;68857;47.916;106.940;2023-12-20T06:18:37;14.25;;;5.10;;
79401;SDS011;68857;47.916;106.940;2023-12-20T06:21:04;13.00;;;5.38;;
79401;SDS011;68857;47.916;106.940;2023-12-20T06:23:32;12.55;;;4.20;;
79401;SDS011;68857;47.916;106.940;2023-12-20T06:25:59;14.73;;;4.70;;
79401;SDS011;68857;47.916;106.940;2023-12-20T06:28:26;17.90;;;5.25;;
79401;SDS011;68857;47.916;106.940;2023-12-20T06:30:52;14.32;;;4.70;;
79401;SDS011;68857;47.916;106.940;2023-12-20T06:33:20;11.68;;;4.15;;
79401;SDS011;68857;47.916;106.940;2023-12-20T06:35:48;14.07;;;4.63;;
79401;SDS011;68857;47.916;106.940;2023-12-20T06:38:14;21.90;;;6.20;;
79401;SDS011;68857;47.916;106.940;2023-12-20T06:40:41;11.88;;;4.47;;
79401;SDS011;68857;47.916;106.940;2023-12-20T06:43:08;10.88;;;5.00;;
79401;SDS011;68857;47.916;106.940;2023-12-20T06:45:35;13.40;;;4.72;;
79401;SDS011;68857;47.916;106.940;2023-12-20T06:48:02;15.23;;;4.45;;
79401;SDS011;68857;47.916;106.940;2023-12-20T06:50:28;11.73;;;4.88;;
79401;SDS011;68857;47.916;106.940;2023-12-20T06:52:55;11.23;;;4.00;;
79401;SDS011;68857;47.916;106.940;2023-12-20T06:55:22;12.57;;;4.47;;
79401;SDS011;68857;47.916;106.940;2023-12-20T06:57:48;12.43;;;4.35;;
79401;SDS011;68857;47.916;106.940;2023-12-20T07:00:15;13.50;;;4.68;;
79401;SDS011;68857;47.916;106.940;2023-12-20T07:02:43;13.02;;;4.00;;
79401;SDS011;68857;47.916;106.940;2023-12-20T07:07:36;8.55;;;3.58;;
79401;SDS011;68857;47.916;106.940;2023-12-20T07:10:03;12.60;;;3.88;;
79401;SDS011;68857;47.916;106.940;2023-12-20T07:12:30;12.27;;;4.28;;
79401;SDS011;68857;47.916;106.940;2023-12-20T07:14:57;11.55;;;4.90;;
79401;SDS011;68857;47.916;106.940;2023-12-20T07:17:23;11.75;;;4.05;;
79401;SDS011;68857;47.916;106.940;2023-12-20T07:19:50;11.60;;;4.55;;
79401;SDS011;68857;47.916;106.940;2023-12-20T07:22:17;13.32;;;4.85;;
79401;SDS011;68857;47.916;106.940;2023-12-20T07:24:44;11.43;;;4.05;;
79401;SDS011;68857;47.916;106.940;2023-12-20T07:27:11;14.68;;;4.85;;
79401;SDS011;68857;47.916;106.940;2023-12-20T07:29:38;11.95;;;4.22;;
79401;SDS011;68857;47.916;106.940;2023-12-20T07:32:05;14.23;;;5.70;;
79401;SDS011;68857;47.916;106.940;2023-12-20T07:34:32;10.77;;;4.57;;
79401;SDS011;68857;47.916;106.940;2023-12-20T07:36:58;17.05;;;4.05;;
79401;SDS011;68857;47.916;106.940;2023-12-20T07:39:25;11.57;;;4.53;;
79401;SDS011;68857;47.916;106.940;2023-12-20T07:41:52;11.38;;;3.70;;
79401;SDS011;68857;47.916;106.940;2023-12-20T07:44:19;10.32;;;4.78;;
79401;SDS011;68857;47.916;106.940;2023-12-20T07:46:45;12.82;;;3.65;;
79401;SDS011;68857;47.916;106.940;2023-12-20T07:49:14;9.15;;;4.43;;
79401;SDS011;68857;47.916;106.940;2023-12-20T07:51:40;13.38;;;4.75;;
79401;SDS011;68857;47.916;106.940;2023-12-20T07:54:07;10.00;;;3.47;;
79401;SDS011;68857;47.916;106.940;2023-12-20T07:56:34;13.85;;;4.15;;
79401;SDS011;68857;47.916;106.940;2023-12-20T07:59:01;8.27;;;3.28;;
79401;SDS011;68857;47.916;106.940;2023-12-20T08:01:27;9.98;;;3.92;;
79401;SDS011;68857;47.916;106.940;2023-12-20T08:03:54;11.02;;;3.83;;
79401;SDS011;68857;47.916;106.940;2023-12-20T08:06:22;7.93;;;3.30;;
79401;SDS011;68857;47.916;106.940;2023-12-20T08:08:49;9.85;;;3.22;;
79401;SDS011;68857;47.916;106.940;2023-12-20T08:11:16;9.95;;;4.10;;
79401;SDS011;68857;47.916;106.940;2023-12-20T08:13:43;9.48;;;3.97;;
79401;SDS011;68857;47.916;106.940;2023-12-20T08:16:09;10.50;;;4.43;;
79401;SDS011;68857;47.916;106.940;2023-12-20T08:18:39;8.45;;;3.53;;
79401;SDS011;68857;47.916;106.940;2023-12-20T08:21:06;7.55;;;2.42;;
79401;SDS011;68857;47.916;106.940;2023-12-20T08:23:37;10.07;;;3.47;;
79401;SDS011;68857;47.916;106.940;2023-12-20T08:26:07;12.15;;;3.92;;
79401;SDS011;68857;47.916;106.940;2023-12-20T08:28:33;9.40;;;4.47;;
79401;SDS011;68857;47.916;106.940;2023-12-20T08:31:00;8.80;;;4.15;;
79401;SDS011;68857;47.916;106.940;2023-12-20T08:33:27;8.38;;;3.13;;
79401;SDS011;68857;47.916;106.940;2023-12-20T08:35:54;9.43;;;4.43;;
79401;SDS011;68857;47.916;106.940;2023-12-20T08:38:21;13.27;;;4.40;;
79401;SDS011;68857;47.916;106.940;2023-12-20T08:40:47;8.77;;;3.60;;
79401;SDS011;68857;47.916;106.940;2023-12-20T08:43:14;10.65;;;3.80;;
79401;SDS011;68857;47.916;106.940;2023-12-20T08:45:41;13.23;;;4.78;;
79401;SDS011;68857;47.916;106.940;2023-12-20T08:48:08;13.20;;;5.30;;
79401;SDS011;68857;47.916;106.940;2023-12-20T08:50:34;14.85;;;5.18;;
79401;SDS011;68857;47.916;106.940;2023-12-20T08:53:01;13.20;;;5.40;;
79401;SDS011;68857;47.916;106.940;2023-12-20T08:55:28;10.15;;;5.15;;
79401;SDS011;68857;47.916;106.940;2023-12-20T08:57:56;13.32;;;5.57;;
79401;SDS011;68857;47.916;106.940;2023-12-20T09:00:23;16.88;;;5.82;;
79401;SDS011;68857;47.916;106.940;2023-12-20T09:02:53;16.48;;;6.78;;
79401;SDS011;68857;47.916;106.940;2023-12-20T09:05:20;14.65;;;6.60;;
79401;SDS011;68857;47.916;106.940;2023-12-20T09:10:14;15.73;;;6.72;;
79401;SDS011;68857;47.916;106.940;2023-12-20T09:12:40;15.63;;;6.85;;
79401;SDS011;68857;47.916;106.940;2023-12-20T09:15:08;13.95;;;6.20;;
79401;SDS011;68857;47.916;106.940;2023-12-20T09:17:34;19.70;;;7.18;;
79401;SDS011;68857;47.916;106.940;2023-12-20T09:20:01;16.27;;;5.72;;
79401;SDS011;68857;47.916;106.940;2023-12-20T09:22:31;15.73;;;6.13;;
79401;SDS011;68857;47.916;106.940;2023-12-20T09:24:58;17.30;;;5.35;;
79401;SDS011;68857;47.916;106.940;2023-12-20T09:27:27;18.77;;;7.57;;
79401;SDS011;68857;47.916;106.940;2023-12-20T09:29:54;18.08;;;6.95;;
79401;SDS011;68857;47.916;106.940;2023-12-20T09:32:20;21.45;;;6.70;;
79401;SDS011;68857;47.916;106.940;2023-12-20T09:34:47;19.65;;;6.50;;
79401;SDS011;68857;47.916;106.940;2023-12-20T09:37:14;20.70;;;7.53;;
79401;SDS011;68857;47.916;106.940;2023-12-20T09:39:41;20.60;;;6.68;;
79401;SDS011;68857;47.916;106.940;2023-12-20T09:42:08;21.15;;;7.40;;
79401;SDS011;68857;47.916;106.940;2023-12-20T09:44:38;17.00;;;6.32;;
79401;SDS011;68857;47.916;106.940;2023-12-20T09:47:07;19.05;;;7.32;;
79401;SDS011;68857;47.916;106.940;2023-12-20T09:49:34;18.77;;;7.72;;
79401;SDS011;68857;47.916;106.940;2023-12-20T09:52:01;21.33;;;8.68;;
79401;SDS011;68857;47.916;106.940;2023-12-20T09:54:31;19.90;;;8.38;;
79401;SDS011;68857;47.916;106.940;2023-12-20T09:56:58;22.40;;;7.72;;
79401;SDS011;68857;47.916;106.940;2023-12-20T09:59:24;19.92;;;7.18;;
79401;SDS011;68857;47.916;106.940;2023-12-20T10:01:51;23.33;;;7.38;;
79401;SDS011;68857;47.916;106.940;2023-12-20T10:04:20;23.50;;;8.63;;
79401;SDS011;68857;47.916;106.940;2023-12-20T10:06:46;19.00;;;7.78;;
79401;SDS011;68857;47.916;106.940;2023-12-20T10:09:13;19.15;;;6.78;;
79401;SDS011;68857;47.916;106.940;2023-12-20T10:11:40;21.38;;;6.80;;
79401;SDS011;68857;47.916;106.940;2023-12-20T10:14:07;26.27;;;10.25;;
79401;SDS011;68857;47.916;106.940;2023-12-20T10:16:34;28.40;;;10.13;;
79401;SDS011;68857;47.916;106.940;2023-12-20T10:19:00;25.50;;;10.25;;
79401;SDS011;68857;47.916;106.940;2023-12-20T10:21:27;28.45;;;10.90;;
79401;SDS011;68857;47.916;106.940;2023-12-20T10:23:54;22.52;;;9.68;;
79401;SDS011;68857;47.916;106.940;2023-12-20T10:26:25;26.17;;;10.18;;
79401;SDS011;68857;47.916;106.940;2023-12-20T10:29:00;26.58;;;9.82;;
79401;SDS011;68857;47.916;106.940;2023-12-20T10:31:30;30.13;;;12.23;;
79401;SDS011;68857;47.916;106.940;2023-12-20T10:33:58;30.33;;;12.38;;
79401;SDS011;68857;47.916;106.940;2023-12-20T10:36:25;30.90;;;10.95;;
79401;SDS011;68857;47.916;106.940;2023-12-20T10:38:53;26.02;;;10.07;;
79401;SDS011;68857;47.916;106.940;2023-12-20T10:41:25;29.00;;;10.82;;
79401;SDS011;68857;47.916;106.940;2023-12-20T10:43:57;26.30;;;11.05;;
79401;SDS011;68857;47.916;106.940;2023-12-20T10:46:25;29.20;;;9.68;;
79401;SDS011;68857;47.916;106.940;2023-12-20T10:48:54;24.80;;;9.38;;
79401;SDS011;68857;47.916;106.940;2023-12-20T10:51:21;28.80;;;11.05;;
79401;SDS011;68857;47.916;106.940;2023-12-20T10:53:48;30.50;;;10.30;;
79401;SDS011;68857;47.916;106.940;2023-12-20T10:56:16;31.45;;;11.98;;
79401;SDS011;68857;47.916;106.940;2023-12-20T10:58:52;29.27;;;9.77;;
79401;SDS011;68857;47.916;106.940;2023-12-20T11:01:19;25.45;;;9.40;;
79401;SDS011;68857;47.916;106.940;2023-12-20T11:08:55;23.67;;;8.25;;
79401;SDS011;68857;47.916;106.940;2023-12-20T11:11:46;25.67;;;8.68;;
79401;SDS011;68857;47.916;106.940;2023-12-20T11:14:23;28.52;;;9.65;;
79401;SDS011;68857;47.916;106.940;2023-12-20T11:16:50;21.52;;;9.35;;
79401;SDS011;68857;47.916;106.940;2023-12-20T11:19:17;23.40;;;8.60;;
79401;SDS011;68857;47.916;106.940;2023-12-20T11:21:44;23.75;;;9.95;;
79401;SDS011;68857;47.916;106.940;2023-12-20T11:24:12;24.25;;;8.13;;
79401;SDS011;68857;47.916;106.940;2023-12-20T11:26:39;23.98;;;9.75;;
79401;SDS011;68857;47.916;106.940;2023-12-20T11:32:00;32.03;;;9.77;;
79401;SDS011;68857;47.916;106.940;2023-12-20T11:34:32;26.52;;;9.82;;
79401;SDS011;68857;47.916;106.940;2023-12-20T11:37:00;26.60;;;8.13;;
79401;SDS011;68857;47.916;106.940;2023-12-20T11:39:28;24.73;;;8.55;;
79401;SDS011;68857;47.916;106.940;2023-12-20T11:41:57;23.90;;;9.13;;
79401;SDS011;68857;47.916;106.940;2023-12-20T11:44:25;24.75;;;8.88;;
79401;SDS011;68857;47.916;106.940;2023-12-20T11:46:52;23.67;;;8.25;;
79401;SDS011;68857;47.916;106.940;2023-12-20T11:49:22;29.50;;;9.10;;
79401;SDS011;68857;47.916;106.940;2023-12-20T11:51:49;24.45;;;8.60;;
79401;SDS011;68857;47.916;106.940;2023-12-20T11:54:16;19.92;;;8.65;;
79401;SDS011;68857;47.916;106.940;2023-12-20T11:56:43;27.90;;;10.52;;
79401;SDS011;68857;47.916;106.940;2023-12-20T11:59:10;25.92;;;9.45;;
79401;SDS011;68857;47.916;106.940;2023-12-20T12:01:37;31.63;;;10.10;;
79401;SDS011;68857;47.916;106.940;2023-12-20T12:04:04;31.15;;;12.65;;
79401;SDS011;68857;47.916;106.940;2023-12-20T12:06:31;32.28;;;12.15;;
79401;SDS011;68857;47.916;106.940;2023-12-20T12:11:25;28.33;;;10.50;;
79401;SDS011;68857;47.916;106.940;2023-12-20T12:13:52;40.22;;;11.27;;
79401;SDS011;68857;47.916;106.940;2023-12-20T12:16:19;31.25;;;13.02;;
79401;SDS011;68857;47.916;106.940;2023-12-20T12:18:54;39.13;;;12.55;;
79401;SDS011;68857;47.916;106.940;2023-12-20T12:21:21;48.50;;;17.20;;
79401;SDS011;68857;47.916;106.940;2023-12-20T12:23:48;56.78;;;19.92;;
79401;SDS011;68857;47.916;106.940;2023-12-20T12:26:14;67.50;;;23.13;;
79401;SDS011;68857;47.916;106.940;2023-12-20T12:28:41;81.88;;;28.00;;
79401;SDS011;68857;47.916;106.940;2023-12-20T12:31:09;95.18;;;30.92;;
79401;SDS011;68857;47.916;106.940;2023-12-20T12:33:42;101.20;;;39.83;;
79401;SDS011;68857;47.916;106.940;2023-12-20T12:36:10;117.45;;;38.95;;
79401;SDS011;68857;47.916;106.940;2023-12-20T12:38:36;128.57;;;43.25;;
79401;SDS011;68857;47.916;106.940;2023-12-20T12:41:04;142.70;;;50.25;;
79401;SDS011;68857;47.916;106.940;2023-12-20T12:43:31;138.35;;;50.85;;
79401;SDS011;68857;47.916;106.940;2023-12-20T12:45:58;135.30;;;49.33;;
79401;SDS011;68857;47.916;106.940;2023-12-20T12:48:25;161.60;;;55.35;;
79401;SDS011;68857;47.916;106.940;2023-12-20T12:50:53;154.57;;;57.50;;
79401;SDS011;68857;47.916;106.940;2023-12-20T12:53:24;180.75;;;64.53;;
79401;SDS011;68857;47.916;106.940;2023-12-20T12:55:52;184.50;;;56.60;;
79401;SDS011;68857;47.916;106.940;2023-12-20T12:58:20;181.18;;;64.78;;
79401;SDS011;68857;47.916;106.940;2023-12-20T13:03:14;160.93;;;61.38;;
79401;SDS011;68857;47.916;106.940;2023-12-20T13:05:41;172.40;;;63.63;;
79401;SDS011;68857;47.916;106.940;2023-12-20T13:08:08;204.73;;;69.72;;
79401;SDS011;68857;47.916;106.940;2023-12-20T13:10:37;185.52;;;69.32;;
79401;SDS011;68857;47.916;106.940;2023-12-20T13:13:04;168.68;;;61.22;;
79401;SDS011;68857;47.916;106.940;2023-12-20T13:15:30;176.55;;;67.18;;
79401;SDS011;68857;47.916;106.940;2023-12-20T13:17:57;196.25;;;69.95;;
79401;SDS011;68857;47.916;106.940;2023-12-20T13:20:25;182.88;;;68.45;;
79401;SDS011;68857;47.916;106.940;2023-12-20T13:22:52;176.38;;;68.15;;
79401;SDS011;68857;47.916;106.940;2023-12-20T13:25:19;177.30;;;70.57;;
79401;SDS011;68857;47.916;106.940;2023-12-20T13:27:45;173.55;;;67.28;;
79401;SDS011;68857;47.916;106.940;2023-12-20T13:30:12;182.10;;;65.88;;
79401;SDS011;68857;47.916;106.940;2023-12-20T13:32:39;177.00;;;60.60;;
79401;SDS011;68857;47.916;106.940;2023-12-20T13:35:06;200.55;;;64.43;;
79401;SDS011;68857;47.916;106.940;2023-12-20T13:37:33;184.52;;;63.88;;
79401;SDS011;68857;47.916;106.940;2023-12-20T13:39:59;184.98;;;67.45;;
79401;SDS011;68857;47.916;106.940;2023-12-20T13:42:28;197.65;;;68.80;;
79401;SDS011;68857;47.916;106.940;2023-12-20T13:44:55;190.35;;;66.53;;
79401;SDS011;68857;47.916;106.940;2023-12-20T13:47:22;193.25;;;68.85;;
79401;SDS011;68857;47.916;106.940;2023-12-20T13:52:15;171.30;;;58.72;;
79401;SDS011;68857;47.916;106.940;2023-12-20T13:54:42;175.68;;;59.70;;
79401;SDS011;68857;47.916;106.940;2023-12-20T13:57:09;189.18;;;61.78;;
79401;SDS011;68857;47.916;106.940;2023-12-20T13:59:36;196.88;;;64.45;;
79401;SDS011;68857;47.916;106.940;2023-12-20T14:02:02;194.18;;;63.53;;
79401;SDS011;68857;47.916;106.940;2023-12-20T14:04:30;176.73;;;66.60;;
79401;SDS011;68857;47.916;106.940;2023-12-20T14:06:56;164.60;;;63.08;;
79401;SDS011;68857;47.916;106.940;2023-12-20T14:09:23;164.07;;;56.45;;
79401;SDS011;68857;47.916;106.940;2023-12-20T14:11:50;168.57;;;58.65;;
79401;SDS011;68857;47.916;106.940;2023-12-20T14:14:17;174.82;;;60.03;;
79401;SDS011;68857;47.916;106.940;2023-12-20T14:16:44;170.07;;;58.53;;
79401;SDS011;68857;47.916;106.940;2023-12-20T14:19:12;161.52;;;59.88;;
79401;SDS011;68857;47.916;106.940;2023-12-20T14:21:38;171.77;;;62.15;;
79401;SDS011;68857;47.916;106.940;2023-12-20T14:24:05;152.20;;;54.75;;
79401;SDS011;68857;47.916;106.940;2023-12-20T14:26:32;150.68;;;54.42;;
79401;SDS011;68857;47.916;106.940;2023-12-20T14:28:59;162.43;;;56.08;;
79401;SDS011;68857;47.916;106.940;2023-12-20T14:31:25;141.75;;;49.75;;
79401;SDS011;68857;47.916;106.940;2023-12-20T14:33:52;145.10;;;52.42;;
79401;SDS011;68857;47.916;106.940;2023-12-20T14:36:21;141.45;;;50.72;;